sensor_id;sensor_type;location;lat;lon;timestamp;P1;durP1;ratioP1;P2;durP2;ratioP2
26157;SDS011;67284;44.782;10.282;2023-06-14T00:02:06;7.13;;;6.28;;
26157;SDS011;67284;44.782;10.282;2023-06-14T00:07:00;8.93;;;6.47;;
26157;SDS011;67284;44.782;10.282;2023-06-14T00:11:55;11.23;;;6.72;;
26157;SDS011;67284;44.782;10.282;2023-06-14T00:16:47;9.70;;;7.30;;
26157;SDS011;67284;44.782;10.282;2023-06-14T00:21:39;10.27;;;7.13;;
26157;SDS011;67284;44.782;10.282;2023-06-14T00:26:32;7.97;;;6.53;;
26157;SDS011;67284;44.782;10.282;2023-06-14T00:31:23;12.63;;;6.93;;
26157;SDS011;67284;44.782;10.282;2023-06-14T00:36:18;8.68;;;6.60;;
26157;SDS011;67284;44.782;10.282;2023-06-14T00:41:10;11.43;;;8.05;;
26157;SDS011;67284;44.782;10.282;2023-06-14T00:46:01;8.27;;;7.07;;
26157;SDS011;67284;44.782;10.282;2023-06-14T00:50:54;10.13;;;7.35;;
26157;SDS011;67284;44.782;10.282;2023-06-14T00:55:46;11.63;;;7.07;;
26157;SDS011;67284;44.782;10.282;2023-06-14T01:00:40;9.98;;;7.80;;
26157;SDS011;67284;44.782;10.282;2023-06-14T01:05:32;9.80;;;7.03;;
26157;SDS011;67284;44.782;10.282;2023-06-14T01:10:32;10.70;;;6.88;;
26157;SDS011;67284;44.782;10.282;2023-06-14T01:15:37;11.73;;;6.57;;
26157;SDS011;67284;44.782;10.282;2023-06-14T01:20:31;8.18;;;6.15;;
26157;SDS011;67284;44.782;10.282;2023-06-14T01:25:24;9.73;;;6.65;;
26157;SDS011;67284;44.782;10.282;2023-06-14T01:30:16;11.77;;;7.72;;
26157;SDS011;67284;44.782;10.282;2023-06-14T01:35:10;12.05;;;7.40;;
26157;SDS011;67284;44.782;10.282;2023-06-14T01:40:03;11.23;;;7.90;;
26157;SDS011;67284;44.782;10.282;2023-06-14T01:44:59;8.63;;;6.93;;
26157;SDS011;67284;44.782;10.282;2023-06-14T01:49:52;12.02;;;7.60;;
26157;SDS011;67284;44.782;10.282;2023-06-14T01:54:44;10.45;;;6.95;;
26157;SDS011;67284;44.782;10.282;2023-06-14T01:59:36;11.63;;;7.10;;
26157;SDS011;67284;44.782;10.282;2023-06-14T02:04:28;14.48;;;7.68;;
26157;SDS011;67284;44.782;10.282;2023-06-14T02:09:20;11.35;;;7.60;;
26157;SDS011;67284;44.782;10.282;2023-06-14T02:14:12;12.90;;;7.07;;
26157;SDS011;67284;44.782;10.282;2023-06-14T02:19:04;10.90;;;7.22;;
26157;SDS011;67284;44.782;10.282;2023-06-14T02:23:56;14.57;;;6.97;;
26157;SDS011;67284;44.782;10.282;2023-06-14T02:28:52;13.55;;;6.95;;
26157;SDS011;67284;44.782;10.282;2023-06-14T02:33:44;10.75;;;8.32;;
26157;SDS011;67284;44.782;10.282;2023-06-14T02:38:35;16.73;;;9.27;;
26157;SDS011;67284;44.782;10.282;2023-06-14T02:43:28;12.45;;;8.52;;
26157;SDS011;67284;44.782;10.282;2023-06-14T02:48:22;12.82;;;8.18;;
26157;SDS011;67284;44.782;10.282;2023-06-14T02:53:14;11.18;;;7.93;;
26157;SDS011;67284;44.782;10.282;2023-06-14T02:58:08;21.60;;;7.80;;
26157;SDS011;67284;44.782;10.282;2023-06-14T03:03:00;10.73;;;7.13;;
26157;SDS011;67284;44.782;10.282;2023-06-14T03:07:54;9.98;;;7.95;;
26157;SDS011;67284;44.782;10.282;2023-06-14T03:12:46;12.82;;;7.00;;
26157;SDS011;67284;44.782;10.282;2023-06-14T03:17:40;11.02;;;7.43;;
26157;SDS011;67284;44.782;10.282;2023-06-14T03:22:32;14.80;;;9.45;;
26157;SDS011;67284;44.782;10.282;2023-06-14T03:27:26;14.27;;;8.82;;
26157;SDS011;67284;44.782;10.282;2023-06-14T03:32:20;17.42;;;9.38;;
26157;SDS011;67284;44.782;10.282;2023-06-14T03:37:12;14.05;;;8.75;;
26157;SDS011;67284;44.782;10.282;2023-06-14T03:42:05;12.32;;;8.00;;
26157;SDS011;67284;44.782;10.282;2023-06-14T03:46:58;13.77;;;7.40;;
26157;SDS011;67284;44.782;10.282;2023-06-14T03:51:51;13.10;;;7.80;;
26157;SDS011;67284;44.782;10.282;2023-06-14T03:56:47;12.38;;;7.78;;
26157;SDS011;67284;44.782;10.282;2023-06-14T04:01:39;12.00;;;8.35;;
26157;SDS011;67284;44.782;10.282;2023-06-14T04:06:39;10.93;;;7.63;;
26157;SDS011;67284;44.782;10.282;2023-06-14T04:11:34;15.95;;;7.80;;
26157;SDS011;67284;44.782;10.282;2023-06-14T04:16:27;11.15;;;7.68;;
26157;SDS011;67284;44.782;10.282;2023-06-14T04:21:20;10.43;;;7.22;;
26157;SDS011;67284;44.782;10.282;2023-06-14T04:26:12;13.77;;;7.22;;
26157;SDS011;67284;44.782;10.282;2023-06-14T04:31:07;7.32;;;6.03;;
26157;SDS011;67284;44.782;10.282;2023-06-14T04:36:00;7.68;;;5.50;;
26157;SDS011;67284;44.782;10.282;2023-06-14T04:40:52;12.23;;;5.53;;
26157;SDS011;67284;44.782;10.282;2023-06-14T04:45:46;9.68;;;6.13;;
26157;SDS011;67284;44.782;10.282;2023-06-14T04:50:39;8.63;;;5.28;;
26157;SDS011;67284;44.782;10.282;2023-06-14T04:55:32;9.68;;;5.55;;
26157;SDS011;67284;44.782;10.282;2023-06-14T05:00:26;10.13;;;5.93;;
26157;SDS011;67284;44.782;10.282;2023-06-14T05:05:18;11.93;;;5.40;;
26157;SDS011;67284;44.782;10.282;2023-06-14T05:10:11;9.88;;;5.47;;
26157;SDS011;67284;44.782;10.282;2023-06-14T05:15:03;6.60;;;4.75;;
26157;SDS011;67284;44.782;10.282;2023-06-14T05:19:56;8.55;;;5.60;;
26157;SDS011;67284;44.782;10.282;2023-06-14T05:24:48;11.88;;;5.20;;
26157;SDS011;67284;44.782;10.282;2023-06-14T05:29:40;8.52;;;5.90;;
26157;SDS011;67284;44.782;10.282;2023-06-14T05:34:31;8.05;;;5.57;;
26157;SDS011;67284;44.782;10.282;2023-06-14T05:39:23;8.60;;;6.68;;
26157;SDS011;67284;44.782;10.282;2023-06-14T05:44:15;10.32;;;6.13;;
26157;SDS011;67284;44.782;10.282;2023-06-14T05:49:07;9.65;;;6.68;;
26157;SDS011;67284;44.782;10.282;2023-06-14T05:53:59;14.82;;;6.93;;
26157;SDS011;67284;44.782;10.282;2023-06-14T05:58:51;9.02;;;6.28;;
26157;SDS011;67284;44.782;10.282;2023-06-14T06:03:43;11.93;;;8.57;;
26157;SDS011;67284;44.782;10.282;2023-06-14T06:08:38;10.85;;;7.03;;
26157;SDS011;67284;44.782;10.282;2023-06-14T06:13:30;9.32;;;6.85;;
26157;SDS011;67284;44.782;10.282;2023-06-14T06:18:21;10.82;;;6.38;;
26157;SDS011;67284;44.782;10.282;2023-06-14T06:23:13;8.63;;;6.88;;
26157;SDS011;67284;44.782;10.282;2023-06-14T06:28:05;12.27;;;6.53;;
26157;SDS011;67284;44.782;10.282;2023-06-14T06:32:57;7.57;;;6.75;;
26157;SDS011;67284;44.782;10.282;2023-06-14T06:38:10;10.20;;;6.65;;
26157;SDS011;67284;44.782;10.282;2023-06-14T06:43:04;9.10;;;7.78;;
26157;SDS011;67284;44.782;10.282;2023-06-14T06:48:04;16.73;;;9.80;;
26157;SDS011;67284;44.782;10.282;2023-06-14T06:53:02;13.77;;;9.52;;
26157;SDS011;67284;44.782;10.282;2023-06-14T06:57:54;16.15;;;10.88;;
26157;SDS011;67284;44.782;10.282;2023-06-14T07:02:46;20.52;;;10.73;;
26157;SDS011;67284;44.782;10.282;2023-06-14T07:07:40;16.60;;;11.18;;
26157;SDS011;67284;44.782;10.282;2023-06-14T07:12:36;20.02;;;12.23;;
26157;SDS011;67284;44.782;10.282;2023-06-14T07:17:31;15.50;;;11.25;;
26157;SDS011;67284;44.782;10.282;2023-06-14T07:22:23;18.00;;;11.07;;
26157;SDS011;67284;44.782;10.282;2023-06-14T07:27:16;19.63;;;12.40;;
26157;SDS011;67284;44.782;10.282;2023-06-14T07:32:07;17.02;;;12.15;;
26157;SDS011;67284;44.782;10.282;2023-06-14T07:37:00;17.55;;;11.50;;
26157;SDS011;67284;44.782;10.282;2023-06-14T07:41:53;17.50;;;11.90;;
26157;SDS011;67284;44.782;10.282;2023-06-14T07:46:45;16.40;;;11.68;;
26157;SDS011;67284;44.782;10.282;2023-06-14T07:51:40;19.27;;;13.38;;
26157;SDS011;67284;44.782;10.282;2023-06-14T07:56:32;13.88;;;10.55;;
26157;SDS011;67284;44.782;10.282;2023-06-14T08:01:24;15.65;;;11.82;;
26157;SDS011;67284;44.782;10.282;2023-06-14T08:06:17;16.05;;;12.00;;
26157;SDS011;67284;44.782;10.282;2023-06-14T08:11:09;25.38;;;15.95;;
26157;SDS011;67284;44.782;10.282;2023-06-14T08:16:01;20.77;;;15.05;;
26157;SDS011;67284;44.782;10.282;2023-06-14T08:20:53;27.67;;;14.75;;
26157;SDS011;67284;44.782;10.282;2023-06-14T08:25:46;30.50;;;22.30;;
26157;SDS011;67284;44.782;10.282;2023-06-14T08:30:38;29.08;;;21.88;;
26157;SDS011;67284;44.782;10.282;2023-06-14T08:35:30;26.98;;;18.83;;
26157;SDS011;67284;44.782;10.282;2023-06-14T08:40:22;26.00;;;18.42;;
26157;SDS011;67284;44.782;10.282;2023-06-14T08:45:15;43.83;;;27.20;;
26157;SDS011;67284;44.782;10.282;2023-06-14T08:50:08;43.33;;;33.42;;
26157;SDS011;67284;44.782;10.282;2023-06-14T08:55:18;39.33;;;27.90;;
26157;SDS011;67284;44.782;10.282;2023-06-14T09:00:11;44.95;;;33.10;;
26157;SDS011;67284;44.782;10.282;2023-06-14T09:05:05;46.80;;;35.33;;
26157;SDS011;67284;44.782;10.282;2023-06-14T09:10:13;50.50;;;36.47;;
26157;SDS011;67284;44.782;10.282;2023-06-14T09:15:07;44.47;;;33.53;;
26157;SDS011;67284;44.782;10.282;2023-06-14T09:20:00;40.20;;;29.20;;
26157;SDS011;67284;44.782;10.282;2023-06-14T09:24:53;39.22;;;28.55;;
26157;SDS011;67284;44.782;10.282;2023-06-14T09:29:45;45.85;;;31.25;;
26157;SDS011;67284;44.782;10.282;2023-06-14T09:34:37;38.67;;;28.45;;
26157;SDS011;67284;44.782;10.282;2023-06-14T09:39:29;37.30;;;28.83;;
26157;SDS011;67284;44.782;10.282;2023-06-14T09:44:21;27.73;;;22.73;;
26157;SDS011;67284;44.782;10.282;2023-06-14T09:49:13;32.63;;;24.58;;
26157;SDS011;67284;44.782;10.282;2023-06-14T09:54:05;32.25;;;23.92;;
26157;SDS011;67284;44.782;10.282;2023-06-14T09:58:58;24.92;;;19.25;;
26157;SDS011;67284;44.782;10.282;2023-06-14T10:04:00;16.65;;;14.85;;
26157;SDS011;67284;44.782;10.282;2023-06-14T10:09:01;18.95;;;15.40;;
26157;SDS011;67284;44.782;10.282;2023-06-14T10:13:55;18.75;;;15.45;;
26157;SDS011;67284;44.782;10.282;2023-06-14T10:18:49;17.75;;;13.43;;
26157;SDS011;67284;44.782;10.282;2023-06-14T10:23:48;11.38;;;10.18;;
26157;SDS011;67284;44.782;10.282;2023-06-14T10:28:41;11.70;;;9.73;;
26157;SDS011;67284;44.782;10.282;2023-06-14T10:38:45;14.90;;;12.32;;
26157;SDS011;67284;44.782;10.282;2023-06-14T10:43:37;17.23;;;14.48;;
26157;SDS011;67284;44.782;10.282;2023-06-14T10:48:31;27.55;;;17.90;;
26157;SDS011;67284;44.782;10.282;2023-06-14T10:53:23;28.83;;;22.23;;
26157;SDS011;67284;44.782;10.282;2023-06-14T10:58:17;22.35;;;17.55;;
26157;SDS011;67284;44.782;10.282;2023-06-14T11:03:31;32.38;;;25.17;;
26157;SDS011;67284;44.782;10.282;2023-06-14T11:14:10;26.02;;;21.95;;
26157;SDS011;67284;44.782;10.282;2023-06-14T11:19:03;22.95;;;18.42;;
26157;SDS011;67284;44.782;10.282;2023-06-14T11:23:55;22.65;;;17.92;;
26157;SDS011;67284;44.782;10.282;2023-06-14T11:28:47;21.45;;;18.52;;
26157;SDS011;67284;44.782;10.282;2023-06-14T11:33:39;18.70;;;15.75;;
26157;SDS011;67284;44.782;10.282;2023-06-14T11:38:34;20.95;;;16.95;;
26157;SDS011;67284;44.782;10.282;2023-06-14T11:43:27;23.95;;;17.42;;
26157;SDS011;67284;44.782;10.282;2023-06-14T11:48:18;20.55;;;15.35;;
26157;SDS011;67284;44.782;10.282;2023-06-14T11:53:11;18.15;;;15.98;;
26157;SDS011;67284;44.782;10.282;2023-06-14T11:58:03;18.77;;;14.45;;
26157;SDS011;67284;44.782;10.282;2023-06-14T12:02:56;20.00;;;15.25;;
26157;SDS011;67284;44.782;10.282;2023-06-14T12:07:49;17.45;;;13.70;;
26157;SDS011;67284;44.782;10.282;2023-06-14T12:12:45;21.20;;;15.60;;
26157;SDS011;67284;44.782;10.282;2023-06-14T12:17:37;17.77;;;13.80;;
26157;SDS011;67284;44.782;10.282;2023-06-14T12:22:33;16.50;;;14.25;;
26157;SDS011;67284;44.782;10.282;2023-06-14T12:27:25;17.40;;;13.73;;
26157;SDS011;67284;44.782;10.282;2023-06-14T12:32:20;13.93;;;12.20;;
26157;SDS011;67284;44.782;10.282;2023-06-14T12:37:15;11.43;;;9.85;;
26157;SDS011;67284;44.782;10.282;2023-06-14T12:42:07;12.32;;;8.95;;
26157;SDS011;67284;44.782;10.282;2023-06-14T12:46:59;10.52;;;9.13;;
26157;SDS011;67284;44.782;10.282;2023-06-14T12:51:51;10.23;;;9.02;;
26157;SDS011;67284;44.782;10.282;2023-06-14T12:56:43;15.93;;;8.80;;
26157;SDS011;67284;44.782;10.282;2023-06-14T13:01:37;10.93;;;8.48;;
26157;SDS011;67284;44.782;10.282;2023-06-14T13:06:30;10.68;;;7.82;;
26157;SDS011;67284;44.782;10.282;2023-06-14T13:11:22;9.27;;;8.25;;
26157;SDS011;67284;44.782;10.282;2023-06-14T13:16:14;9.50;;;8.50;;
26157;SDS011;67284;44.782;10.282;2023-06-14T13:21:06;11.95;;;8.45;;
26157;SDS011;67284;44.782;10.282;2023-06-14T13:25:58;11.27;;;9.00;;
26157;SDS011;67284;44.782;10.282;2023-06-14T13:30:54;11.63;;;9.27;;
26157;SDS011;67284;44.782;10.282;2023-06-14T13:35:47;8.38;;;7.57;;
26157;SDS011;67284;44.782;10.282;2023-06-14T13:40:40;9.05;;;7.55;;
26157;SDS011;67284;44.782;10.282;2023-06-14T13:45:32;8.68;;;7.18;;
26157;SDS011;67284;44.782;10.282;2023-06-14T13:50:24;8.88;;;7.30;;
26157;SDS011;67284;44.782;10.282;2023-06-14T13:55:16;7.90;;;7.10;;
26157;SDS011;67284;44.782;10.282;2023-06-14T14:00:08;8.82;;;7.65;;
26157;SDS011;67284;44.782;10.282;2023-06-14T14:05:04;8.77;;;7.88;;
26157;SDS011;67284;44.782;10.282;2023-06-14T14:09:56;9.23;;;7.30;;
26157;SDS011;67284;44.782;10.282;2023-06-14T14:14:49;11.82;;;6.63;;
26157;SDS011;67284;44.782;10.282;2023-06-14T14:19:42;7.05;;;6.35;;
26157;SDS011;67284;44.782;10.282;2023-06-14T14:24:34;6.65;;;5.97;;
26157;SDS011;67284;44.782;10.282;2023-06-14T14:29:26;8.27;;;6.57;;
26157;SDS011;67284;44.782;10.282;2023-06-14T14:34:20;7.18;;;6.40;;
26157;SDS011;67284;44.782;10.282;2023-06-14T14:39:12;7.45;;;6.38;;
26157;SDS011;67284;44.782;10.282;2023-06-14T14:44:04;7.90;;;6.38;;
26157;SDS011;67284;44.782;10.282;2023-06-14T14:48:56;7.85;;;6.35;;
26157;SDS011;67284;44.782;10.282;2023-06-14T14:53:50;6.20;;;5.50;;
26157;SDS011;67284;44.782;10.282;2023-06-14T14:58:46;8.63;;;6.53;;
26157;SDS011;67284;44.782;10.282;2023-06-14T15:03:38;6.72;;;6.03;;
26157;SDS011;67284;44.782;10.282;2023-06-14T15:08:48;7.75;;;6.93;;
26157;SDS011;67284;44.782;10.282;2023-06-14T15:13:40;7.93;;;6.88;;
26157;SDS011;67284;44.782;10.282;2023-06-14T15:18:32;8.85;;;7.60;;
26157;SDS011;67284;44.782;10.282;2023-06-14T15:23:23;8.93;;;7.65;;
26157;SDS011;67284;44.782;10.282;2023-06-14T15:28:15;9.80;;;7.13;;
26157;SDS011;67284;44.782;10.282;2023-06-14T15:33:07;10.07;;;7.63;;
26157;SDS011;67284;44.782;10.282;2023-06-14T15:37:59;12.85;;;7.68;;
26157;SDS011;67284;44.782;10.282;2023-06-14T15:42:51;10.63;;;7.43;;
26157;SDS011;67284;44.782;10.282;2023-06-14T15:47:43;9.82;;;7.45;;
26157;SDS011;67284;44.782;10.282;2023-06-14T15:52:35;9.13;;;7.63;;
26157;SDS011;67284;44.782;10.282;2023-06-14T15:57:27;9.27;;;6.57;;
26157;SDS011;67284;44.782;10.282;2023-06-14T16:02:18;8.75;;;7.20;;
26157;SDS011;67284;44.782;10.282;2023-06-14T16:07:10;8.63;;;6.38;;
26157;SDS011;67284;44.782;10.282;2023-06-14T16:12:04;10.50;;;7.00;;
26157;SDS011;67284;44.782;10.282;2023-06-14T16:16:57;9.48;;;7.13;;
26157;SDS011;67284;44.782;10.282;2023-06-14T16:21:49;11.90;;;7.35;;
26157;SDS011;67284;44.782;10.282;2023-06-14T16:26:41;9.18;;;6.65;;
26157;SDS011;67284;44.782;10.282;2023-06-14T16:31:34;7.15;;;6.40;;
26157;SDS011;67284;44.782;10.282;2023-06-14T16:36:26;7.68;;;6.97;;
26157;SDS011;67284;44.782;10.282;2023-06-14T16:41:18;8.27;;;6.25;;
26157;SDS011;67284;44.782;10.282;2023-06-14T16:46:10;8.13;;;6.07;;
26157;SDS011;67284;44.782;10.282;2023-06-14T16:51:03;7.10;;;6.00;;
26157;SDS011;67284;44.782;10.282;2023-06-14T16:55:55;9.32;;;5.78;;
26157;SDS011;67284;44.782;10.282;2023-06-14T17:00:47;7.60;;;6.20;;
26157;SDS011;67284;44.782;10.282;2023-06-14T17:05:40;8.73;;;6.65;;
26157;SDS011;67284;44.782;10.282;2023-06-14T17:10:45;8.05;;;6.65;;
26157;SDS011;67284;44.782;10.282;2023-06-14T17:15:38;6.75;;;5.90;;
26157;SDS011;67284;44.782;10.282;2023-06-14T17:20:30;6.13;;;5.53;;
26157;SDS011;67284;44.782;10.282;2023-06-14T17:25:24;7.32;;;5.68;;
26157;SDS011;67284;44.782;10.282;2023-06-14T17:30:16;9.30;;;5.45;;
26157;SDS011;67284;44.782;10.282;2023-06-14T17:35:08;6.57;;;5.40;;
26157;SDS011;67284;44.782;10.282;2023-06-14T17:40:00;7.65;;;5.85;;
26157;SDS011;67284;44.782;10.282;2023-06-14T17:44:52;7.57;;;5.07;;
26157;SDS011;67284;44.782;10.282;2023-06-14T17:49:47;5.63;;;5.13;;
26157;SDS011;67284;44.782;10.282;2023-06-14T17:54:43;5.78;;;4.95;;
26157;SDS011;67284;44.782;10.282;2023-06-14T17:59:35;5.72;;;5.15;;
26157;SDS011;67284;44.782;10.282;2023-06-14T18:04:27;6.00;;;5.22;;
26157;SDS011;67284;44.782;10.282;2023-06-14T18:09:19;7.63;;;5.43;;
26157;SDS011;67284;44.782;10.282;2023-06-14T18:14:12;5.85;;;5.25;;
26157;SDS011;67284;44.782;10.282;2023-06-14T18:19:03;7.07;;;5.32;;
26157;SDS011;67284;44.782;10.282;2023-06-14T18:23:55;8.00;;;5.90;;
26157;SDS011;67284;44.782;10.282;2023-06-14T18:28:47;7.88;;;6.85;;
26157;SDS011;67284;44.782;10.282;2023-06-14T18:33:39;6.22;;;4.80;;
26157;SDS011;67284;44.782;10.282;2023-06-14T18:38:32;6.05;;;5.30;;
26157;SDS011;67284;44.782;10.282;2023-06-14T18:43:24;6.25;;;4.80;;
26157;SDS011;67284;44.782;10.282;2023-06-14T18:48:15;7.03;;;6.20;;
26157;SDS011;67284;44.782;10.282;2023-06-14T18:53:08;5.20;;;4.70;;
26157;SDS011;67284;44.782;10.282;2023-06-14T18:57:59;6.80;;;5.72;;
26157;SDS011;67284;44.782;10.282;2023-06-14T19:02:51;7.75;;;6.00;;
26157;SDS011;67284;44.782;10.282;2023-06-14T19:07:43;8.15;;;5.40;;
26157;SDS011;67284;44.782;10.282;2023-06-14T19:12:35;8.95;;;5.70;;
26157;SDS011;67284;44.782;10.282;2023-06-14T19:17:27;9.73;;;6.07;;
26157;SDS011;67284;44.782;10.282;2023-06-14T19:22:19;7.43;;;5.53;;
26157;SDS011;67284;44.782;10.282;2023-06-14T19:27:11;7.90;;;6.10;;
26157;SDS011;67284;44.782;10.282;2023-06-14T19:32:03;6.88;;;5.32;;
26157;SDS011;67284;44.782;10.282;2023-06-14T19:36:56;6.60;;;5.00;;
26157;SDS011;67284;44.782;10.282;2023-06-14T19:41:48;8.80;;;5.85;;
26157;SDS011;67284;44.782;10.282;2023-06-14T19:46:40;8.68;;;6.05;;
26157;SDS011;67284;44.782;10.282;2023-06-14T19:51:32;12.20;;;6.30;;
26157;SDS011;67284;44.782;10.282;2023-06-14T19:56:23;6.63;;;5.97;;
26157;SDS011;67284;44.782;10.282;2023-06-14T20:01:15;7.43;;;5.55;;
26157;SDS011;67284;44.782;10.282;2023-06-14T20:06:07;7.18;;;6.47;;
26157;SDS011;67284;44.782;10.282;2023-06-14T20:11:02;8.82;;;6.30;;
26157;SDS011;67284;44.782;10.282;2023-06-14T20:15:54;8.32;;;7.05;;
26157;SDS011;67284;44.782;10.282;2023-06-14T20:20:48;11.65;;;7.50;;
26157;SDS011;67284;44.782;10.282;2023-06-14T20:25:41;9.30;;;7.63;;
26157;SDS011;67284;44.782;10.282;2023-06-14T20:30:33;9.40;;;7.00;;
26157;SDS011;67284;44.782;10.282;2023-06-14T20:35:26;8.40;;;6.80;;
26157;SDS011;67284;44.782;10.282;2023-06-14T20:40:21;8.05;;;7.25;;
26157;SDS011;67284;44.782;10.282;2023-06-14T20:45:14;10.32;;;8.73;;
26157;SDS011;67284;44.782;10.282;2023-06-14T20:50:06;10.65;;;7.80;;
26157;SDS011;67284;44.782;10.282;2023-06-14T20:55:02;8.32;;;6.85;;
26157;SDS011;67284;44.782;10.282;2023-06-14T20:59:54;10.02;;;7.65;;
26157;SDS011;67284;44.782;10.282;2023-06-14T21:04:46;9.27;;;7.20;;
26157;SDS011;67284;44.782;10.282;2023-06-14T21:09:38;7.93;;;6.85;;
26157;SDS011;67284;44.782;10.282;2023-06-14T21:14:34;10.27;;;7.25;;
26157;SDS011;67284;44.782;10.282;2023-06-14T21:19:26;10.02;;;7.20;;
26157;SDS011;67284;44.782;10.282;2023-06-14T21:24:18;10.07;;;8.57;;
26157;SDS011;67284;44.782;10.282;2023-06-14T21:29:10;8.13;;;7.20;;
26157;SDS011;67284;44.782;10.282;2023-06-14T21:34:03;8.43;;;6.72;;
26157;SDS011;67284;44.782;10.282;2023-06-14T21:38:54;9.43;;;6.88;;
26157;SDS011;67284;44.782;10.282;2023-06-14T21:43:46;8.32;;;7.53;;
26157;SDS011;67284;44.782;10.282;2023-06-14T21:48:38;9.57;;;8.43;;
26157;SDS011;67284;44.782;10.282;2023-06-14T21:53:30;7.65;;;6.95;;
26157;SDS011;67284;44.782;10.282;2023-06-14T21:58:25;9.23;;;7.65;;
26157;SDS011;67284;44.782;10.282;2023-06-14T22:03:16;8.45;;;7.63;;
26157;SDS011;67284;44.782;10.282;2023-06-14T22:08:08;9.68;;;8.50;;
26157;SDS011;67284;44.782;10.282;2023-06-14T22:13:01;10.77;;;9.10;;
26157;SDS011;67284;44.782;10.282;2023-06-14T22:17:53;10.60;;;9.07;;
26157;SDS011;67284;44.782;10.282;2023-06-14T22:22:47;9.95;;;8.93;;
26157;SDS011;67284;44.782;10.282;2023-06-14T22:27:41;10.35;;;9.23;;
26157;SDS011;67284;44.782;10.282;2023-06-14T22:37:31;9.85;;;8.60;;
26157;SDS011;67284;44.782;10.282;2023-06-14T22:42:28;12.63;;;9.32;;
26157;SDS011;67284;44.782;10.282;2023-06-14T22:47:21;9.93;;;8.93;;
26157;SDS011;67284;44.782;10.282;2023-06-14T22:52:13;10.23;;;9.00;;
26157;SDS011;67284;44.782;10.282;2023-06-14T22:57:05;12.00;;;9.35;;
26157;SDS011;67284;44.782;10.282;2023-06-14T23:01:59;9.48;;;8.57;;
26157;SDS011;67284;44.782;10.282;2023-06-14T23:06:51;12.73;;;8.43;;
26157;SDS011;67284;44.782;10.282;2023-06-14T23:11:43;9.40;;;8.45;;
26157;SDS011;67284;44.782;10.282;2023-06-14T23:16:35;11.82;;;8.98;;
26157;SDS011;67284;44.782;10.282;2023-06-14T23:21:27;10.02;;;8.70;;
26157;SDS011;67284;44.782;10.282;2023-06-14T23:26:19;10.95;;;9.30;;
26157;SDS011;67284;44.782;10.282;2023-06-14T23:31:20;9.40;;;8.38;;
26157;SDS011;67284;44.782;10.282;2023-06-14T23:36:14;10.10;;;9.00;;
26157;SDS011;67284;44.782;10.282;2023-06-14T23:41:06;10.75;;;8.95;;
26157;SDS011;67284;44.782;10.282;2023-06-14T23:45:58;15.40;;;8.48;;
26157;SDS011;67284;44.782;10.282;2023-06-14T23:50:54;9.63;;;7.97;;
26157;SDS011;67284;44.782;10.282;2023-06-14T23:55:47;12.77;;;9.07;;
